sensor_id;sensor_type;location;lat;lon;timestamp;P1;durP1;ratioP1;P2;durP2;ratioP2
19291;SDS011;9779;51.756;7.450;2023-05-08T00:00:19;8.17;;;7.60;;
19291;SDS011;9779;51.756;7.450;2023-05-08T00:02:44;8.73;;;7.03;;
19291;SDS011;9779;51.756;7.450;2023-05-08T00:05:10;8.03;;;7.53;;
19291;SDS011;9779;51.756;7.450;2023-05-08T00:07:36;7.23;;;6.73;;
19291;SDS011;9779;51.756;7.450;2023-05-08T00:10:02;6.90;;;6.50;;
19291;SDS011;9779;51.756;7.450;2023-05-08T00:12:28;7.77;;;7.10;;
19291;SDS011;9779;51.756;7.450;2023-05-08T00:14:54;7.33;;;6.93;;
19291;SDS011;9779;51.756;7.450;2023-05-08T00:17:20;8.13;;;7.63;;
19291;SDS011;9779;51.756;7.450;2023-05-08T00:19:46;7.77;;;7.27;;
19291;SDS011;9779;51.756;7.450;2023-05-08T00:22:12;7.50;;;7.00;;
19291;SDS011;9779;51.756;7.450;2023-05-08T00:24:37;7.70;;;7.20;;
19291;SDS011;9779;51.756;7.450;2023-05-08T00:27:03;6.77;;;6.27;;
19291;SDS011;9779;51.756;7.450;2023-05-08T00:29:28;7.53;;;6.90;;
19291;SDS011;9779;51.756;7.450;2023-05-08T00:31:54;6.60;;;6.30;;
19291;SDS011;9779;51.756;7.450;2023-05-08T00:34:20;7.27;;;6.67;;
19291;SDS011;9779;51.756;7.450;2023-05-08T00:36:45;7.27;;;6.87;;
19291;SDS011;9779;51.756;7.450;2023-05-08T00:39:11;6.90;;;6.50;;
19291;SDS011;9779;51.756;7.450;2023-05-08T00:41:37;7.37;;;6.97;;
19291;SDS011;9779;51.756;7.450;2023-05-08T00:44:02;6.70;;;6.13;;
19291;SDS011;9779;51.756;7.450;2023-05-08T00:46:28;7.23;;;6.83;;
19291;SDS011;9779;51.756;7.450;2023-05-08T00:48:54;7.30;;;6.70;;
19291;SDS011;9779;51.756;7.450;2023-05-08T00:51:20;7.63;;;7.13;;
19291;SDS011;9779;51.756;7.450;2023-05-08T00:53:46;10.50;;;6.60;;
19291;SDS011;9779;51.756;7.450;2023-05-08T00:56:13;7.17;;;6.77;;
19291;SDS011;9779;51.756;7.450;2023-05-08T00:58:39;6.87;;;6.30;;
19291;SDS011;9779;51.756;7.450;2023-05-08T01:01:06;6.90;;;6.40;;
19291;SDS011;9779;51.756;7.450;2023-05-08T01:03:32;6.73;;;6.37;;
19291;SDS011;9779;51.756;7.450;2023-05-08T01:06:00;6.80;;;6.40;;
19291;SDS011;9779;51.756;7.450;2023-05-08T01:08:27;7.07;;;6.40;;
19291;SDS011;9779;51.756;7.450;2023-05-08T01:13:39;6.67;;;6.27;;
19291;SDS011;9779;51.756;7.450;2023-05-08T01:16:16;6.23;;;5.77;;
19291;SDS011;9779;51.756;7.450;2023-05-08T01:18:52;6.97;;;6.57;;
19291;SDS011;9779;51.756;7.450;2023-05-08T01:24:32;7.47;;;7.00;;
19291;SDS011;9779;51.756;7.450;2023-05-08T01:33:00;7.30;;;6.80;;
19291;SDS011;9779;51.756;7.450;2023-05-08T01:35:33;8.03;;;7.23;;
19291;SDS011;9779;51.756;7.450;2023-05-08T01:38:28;8.13;;;7.53;;
19291;SDS011;9779;51.756;7.450;2023-05-08T01:41:17;7.17;;;6.77;;
19291;SDS011;9779;51.756;7.450;2023-05-08T01:43:54;6.93;;;6.53;;
19291;SDS011;9779;51.756;7.450;2023-05-08T01:46:39;7.00;;;6.60;;
19291;SDS011;9779;51.756;7.450;2023-05-08T01:49:09;7.67;;;6.97;;
19291;SDS011;9779;51.756;7.450;2023-05-08T01:51:39;8.03;;;7.53;;
19291;SDS011;9779;51.756;7.450;2023-05-08T01:54:10;9.27;;;7.13;;
19291;SDS011;9779;51.756;7.450;2023-05-08T01:56:41;7.07;;;6.67;;
19291;SDS011;9779;51.756;7.450;2023-05-08T01:59:08;8.43;;;7.73;;
19291;SDS011;9779;51.756;7.450;2023-05-08T02:01:37;7.83;;;7.23;;
19291;SDS011;9779;51.756;7.450;2023-05-08T02:04:04;7.30;;;6.80;;
19291;SDS011;9779;51.756;7.450;2023-05-08T02:06:31;6.93;;;6.53;;
19291;SDS011;9779;51.756;7.450;2023-05-08T02:08:58;7.20;;;6.80;;
19291;SDS011;9779;51.756;7.450;2023-05-08T02:11:25;7.23;;;6.73;;
19291;SDS011;9779;51.756;7.450;2023-05-08T02:13:51;8.33;;;7.50;;
19291;SDS011;9779;51.756;7.450;2023-05-08T02:16:18;7.50;;;7.10;;
19291;SDS011;9779;51.756;7.450;2023-05-08T02:18:47;7.17;;;6.67;;
19291;SDS011;9779;51.756;7.450;2023-05-08T02:21:16;7.57;;;7.17;;
19291;SDS011;9779;51.756;7.450;2023-05-08T02:23:44;7.20;;;6.70;;
19291;SDS011;9779;51.756;7.450;2023-05-08T02:26:11;7.50;;;7.10;;
19291;SDS011;9779;51.756;7.450;2023-05-08T02:28:39;10.77;;;6.90;;
19291;SDS011;9779;51.756;7.450;2023-05-08T02:31:05;8.10;;;7.47;;
19291;SDS011;9779;51.756;7.450;2023-05-08T02:33:33;7.37;;;6.97;;
19291;SDS011;9779;51.756;7.450;2023-05-08T02:36:01;7.00;;;6.57;;
19291;SDS011;9779;51.756;7.450;2023-05-08T02:38:27;7.43;;;6.93;;
19291;SDS011;9779;51.756;7.450;2023-05-08T02:40:55;8.67;;;7.80;;
19291;SDS011;9779;51.756;7.450;2023-05-08T02:43:24;7.47;;;7.07;;
19291;SDS011;9779;51.756;7.450;2023-05-08T02:46:08;7.47;;;6.57;;
19291;SDS011;9779;51.756;7.450;2023-05-08T02:51:25;7.40;;;6.90;;
19291;SDS011;9779;51.756;7.450;2023-05-08T02:53:58;8.13;;;7.63;;
19291;SDS011;9779;51.756;7.450;2023-05-08T02:56:36;7.70;;;7.30;;
19291;SDS011;9779;51.756;7.450;2023-05-08T02:59:15;7.87;;;7.37;;
19291;SDS011;9779;51.756;7.450;2023-05-08T03:02:08;7.07;;;6.67;;
19291;SDS011;9779;51.756;7.450;2023-05-08T03:04:35;7.80;;;7.10;;
19291;SDS011;9779;51.756;7.450;2023-05-08T03:07:05;7.63;;;7.13;;
19291;SDS011;9779;51.756;7.450;2023-05-08T03:09:35;8.27;;;7.63;;
19291;SDS011;9779;51.756;7.450;2023-05-08T03:12:06;7.97;;;7.47;;
19291;SDS011;9779;51.756;7.450;2023-05-08T03:14:38;8.10;;;7.60;;
19291;SDS011;9779;51.756;7.450;2023-05-08T03:17:12;7.50;;;7.10;;
19291;SDS011;9779;51.756;7.450;2023-05-08T03:19:40;8.33;;;7.70;;
19291;SDS011;9779;51.756;7.450;2023-05-08T03:22:08;8.40;;;7.70;;
19291;SDS011;9779;51.756;7.450;2023-05-08T03:24:34;7.57;;;7.07;;
19291;SDS011;9779;51.756;7.450;2023-05-08T03:27:02;8.23;;;7.77;;
19291;SDS011;9779;51.756;7.450;2023-05-08T03:29:29;9.53;;;7.47;;
19291;SDS011;9779;51.756;7.450;2023-05-08T03:31:57;8.00;;;7.23;;
19291;SDS011;9779;51.756;7.450;2023-05-08T03:34:26;8.03;;;7.60;;
19291;SDS011;9779;51.756;7.450;2023-05-08T03:36:53;9.00;;;8.30;;
19291;SDS011;9779;51.756;7.450;2023-05-08T03:39:20;8.13;;;7.40;;
19291;SDS011;9779;51.756;7.450;2023-05-08T03:41:46;8.90;;;8.30;;
19291;SDS011;9779;51.756;7.450;2023-05-08T03:44:13;9.07;;;8.40;;
19291;SDS011;9779;51.756;7.450;2023-05-08T03:46:40;8.93;;;8.43;;
19291;SDS011;9779;51.756;7.450;2023-05-08T03:49:06;8.10;;;7.60;;
19291;SDS011;9779;51.756;7.450;2023-05-08T03:51:34;7.77;;;7.27;;
19291;SDS011;9779;51.756;7.450;2023-05-08T03:54:02;8.00;;;7.60;;
19291;SDS011;9779;51.756;7.450;2023-05-08T03:56:28;8.83;;;8.23;;
19291;SDS011;9779;51.756;7.450;2023-05-08T03:59:03;8.67;;;8.07;;
19291;SDS011;9779;51.756;7.450;2023-05-08T04:01:38;9.10;;;8.27;;
19291;SDS011;9779;51.756;7.450;2023-05-08T04:04:17;9.20;;;8.60;;
19291;SDS011;9779;51.756;7.450;2023-05-08T04:06:55;8.50;;;8.00;;
19291;SDS011;9779;51.756;7.450;2023-05-08T04:12:08;9.00;;;8.50;;
19291;SDS011;9779;51.756;7.450;2023-05-08T04:14:51;9.23;;;8.73;;
19291;SDS011;9779;51.756;7.450;2023-05-08T04:17:33;10.07;;;7.87;;
19291;SDS011;9779;51.756;7.450;2023-05-08T04:20:02;9.63;;;8.70;;
19291;SDS011;9779;51.756;7.450;2023-05-08T04:22:29;8.47;;;8.07;;
19291;SDS011;9779;51.756;7.450;2023-05-08T04:24:57;10.53;;;9.63;;
19291;SDS011;9779;51.756;7.450;2023-05-08T04:27:25;9.27;;;8.67;;
19291;SDS011;9779;51.756;7.450;2023-05-08T04:29:52;9.30;;;8.77;;
19291;SDS011;9779;51.756;7.450;2023-05-08T04:32:20;11.53;;;8.83;;
19291;SDS011;9779;51.756;7.450;2023-05-08T04:34:46;8.63;;;7.93;;
19291;SDS011;9779;51.756;7.450;2023-05-08T04:37:22;9.83;;;9.13;;
19291;SDS011;9779;51.756;7.450;2023-05-08T04:39:52;8.90;;;8.20;;
19291;SDS011;9779;51.756;7.450;2023-05-08T04:42:18;9.87;;;8.80;;
19291;SDS011;9779;51.756;7.450;2023-05-08T04:44:44;10.10;;;9.40;;
19291;SDS011;9779;51.756;7.450;2023-05-08T04:47:11;10.87;;;10.17;;
19291;SDS011;9779;51.756;7.450;2023-05-08T04:49:36;11.03;;;9.90;;
19291;SDS011;9779;51.756;7.450;2023-05-08T04:52:02;9.40;;;8.90;;
19291;SDS011;9779;51.756;7.450;2023-05-08T04:54:28;9.20;;;8.60;;
19291;SDS011;9779;51.756;7.450;2023-05-08T04:56:54;10.00;;;9.40;;
19291;SDS011;9779;51.756;7.450;2023-05-08T04:59:19;10.43;;;9.33;;
19291;SDS011;9779;51.756;7.450;2023-05-08T05:01:45;9.87;;;9.27;;
19291;SDS011;9779;51.756;7.450;2023-05-08T05:04:11;9.37;;;8.60;;
19291;SDS011;9779;51.756;7.450;2023-05-08T05:06:37;8.80;;;8.20;;
19291;SDS011;9779;51.756;7.450;2023-05-08T05:09:03;9.53;;;8.67;;
19291;SDS011;9779;51.756;7.450;2023-05-08T05:11:29;9.67;;;9.00;;
19291;SDS011;9779;51.756;7.450;2023-05-08T05:13:54;9.63;;;8.53;;
19291;SDS011;9779;51.756;7.450;2023-05-08T05:16:20;8.83;;;8.23;;
19291;SDS011;9779;51.756;7.450;2023-05-08T05:18:46;9.23;;;8.57;;
19291;SDS011;9779;51.756;7.450;2023-05-08T05:21:11;9.17;;;8.57;;
19291;SDS011;9779;51.756;7.450;2023-05-08T05:23:37;9.70;;;9.10;;
19291;SDS011;9779;51.756;7.450;2023-05-08T05:26:03;9.00;;;8.50;;
19291;SDS011;9779;51.756;7.450;2023-05-08T05:28:28;8.17;;;7.67;;
19291;SDS011;9779;51.756;7.450;2023-05-08T05:30:54;8.73;;;8.23;;
19291;SDS011;9779;51.756;7.450;2023-05-08T05:33:19;8.77;;;8.03;;
19291;SDS011;9779;51.756;7.450;2023-05-08T05:35:45;8.47;;;7.97;;
19291;SDS011;9779;51.756;7.450;2023-05-08T05:38:10;8.77;;;7.97;;
19291;SDS011;9779;51.756;7.450;2023-05-08T05:40:36;10.90;;;8.73;;
19291;SDS011;9779;51.756;7.450;2023-05-08T05:43:01;9.10;;;8.60;;
19291;SDS011;9779;51.756;7.450;2023-05-08T05:45:27;8.70;;;8.00;;
19291;SDS011;9779;51.756;7.450;2023-05-08T05:47:53;9.60;;;8.33;;
19291;SDS011;9779;51.756;7.450;2023-05-08T05:50:19;8.83;;;8.20;;
19291;SDS011;9779;51.756;7.450;2023-05-08T05:52:45;8.33;;;7.80;;
19291;SDS011;9779;51.756;7.450;2023-05-08T05:55:11;9.03;;;8.30;;
19291;SDS011;9779;51.756;7.450;2023-05-08T05:57:37;8.20;;;7.80;;
19291;SDS011;9779;51.756;7.450;2023-05-08T06:00:03;8.70;;;8.20;;
19291;SDS011;9779;51.756;7.450;2023-05-08T06:02:30;7.40;;;7.00;;
19291;SDS011;9779;51.756;7.450;2023-05-08T06:04:57;13.17;;;8.50;;
19291;SDS011;9779;51.756;7.450;2023-05-08T06:07:23;8.17;;;7.47;;
19291;SDS011;9779;51.756;7.450;2023-05-08T06:09:49;8.03;;;7.53;;
19291;SDS011;9779;51.756;7.450;2023-05-08T06:12:15;9.27;;;7.83;;
19291;SDS011;9779;51.756;7.450;2023-05-08T06:14:42;8.97;;;8.27;;
19291;SDS011;9779;51.756;7.450;2023-05-08T06:17:08;9.20;;;8.47;;
19291;SDS011;9779;51.756;7.450;2023-05-08T06:19:33;8.90;;;8.10;;
19291;SDS011;9779;51.756;7.450;2023-05-08T06:21:59;8.77;;;8.27;;
19291;SDS011;9779;51.756;7.450;2023-05-08T06:24:25;9.57;;;8.87;;
19291;SDS011;9779;51.756;7.450;2023-05-08T06:26:51;9.27;;;8.60;;
19291;SDS011;9779;51.756;7.450;2023-05-08T06:29:17;9.30;;;8.50;;
19291;SDS011;9779;51.756;7.450;2023-05-08T06:31:42;8.50;;;7.90;;
19291;SDS011;9779;51.756;7.450;2023-05-08T06:34:08;8.63;;;8.13;;
19291;SDS011;9779;51.756;7.450;2023-05-08T06:36:34;8.70;;;8.17;;
19291;SDS011;9779;51.756;7.450;2023-05-08T06:39:00;9.00;;;8.40;;
19291;SDS011;9779;51.756;7.450;2023-05-08T06:41:28;8.60;;;8.10;;
19291;SDS011;9779;51.756;7.450;2023-05-08T06:43:53;9.13;;;8.40;;
19291;SDS011;9779;51.756;7.450;2023-05-08T06:46:19;9.63;;;9.07;;
19291;SDS011;9779;51.756;7.450;2023-05-08T06:48:45;8.90;;;8.23;;
19291;SDS011;9779;51.756;7.450;2023-05-08T06:51:11;9.40;;;8.67;;
19291;SDS011;9779;51.756;7.450;2023-05-08T06:53:36;8.40;;;7.90;;
19291;SDS011;9779;51.756;7.450;2023-05-08T06:56:02;8.97;;;8.47;;
19291;SDS011;9779;51.756;7.450;2023-05-08T06:58:27;8.50;;;7.87;;
19291;SDS011;9779;51.756;7.450;2023-05-08T07:00:55;9.20;;;8.70;;
19291;SDS011;9779;51.756;7.450;2023-05-08T07:03:20;9.47;;;8.87;;
19291;SDS011;9779;51.756;7.450;2023-05-08T07:05:46;10.00;;;8.87;;
19291;SDS011;9779;51.756;7.450;2023-05-08T07:08:12;9.53;;;8.93;;
19291;SDS011;9779;51.756;7.450;2023-05-08T07:10:37;9.20;;;8.30;;
19291;SDS011;9779;51.756;7.450;2023-05-08T07:13:03;8.00;;;7.50;;
19291;SDS011;9779;51.756;7.450;2023-05-08T07:15:30;9.17;;;8.27;;
19291;SDS011;9779;51.756;7.450;2023-05-08T07:17:56;8.43;;;7.93;;
19291;SDS011;9779;51.756;7.450;2023-05-08T07:20:21;9.67;;;8.77;;
19291;SDS011;9779;51.756;7.450;2023-05-08T07:22:48;11.97;;;8.83;;
19291;SDS011;9779;51.756;7.450;2023-05-08T07:25:13;10.03;;;9.13;;
19291;SDS011;9779;51.756;7.450;2023-05-08T07:27:40;9.50;;;8.80;;
19291;SDS011;9779;51.756;7.450;2023-05-08T07:30:06;14.10;;;10.67;;
19291;SDS011;9779;51.756;7.450;2023-05-08T07:32:32;9.17;;;8.60;;
19291;SDS011;9779;51.756;7.450;2023-05-08T07:34:58;9.43;;;8.93;;
19291;SDS011;9779;51.756;7.450;2023-05-08T07:37:23;8.80;;;8.20;;
19291;SDS011;9779;51.756;7.450;2023-05-08T07:39:49;9.60;;;8.70;;
19291;SDS011;9779;51.756;7.450;2023-05-08T07:42:15;11.53;;;9.37;;
19291;SDS011;9779;51.756;7.450;2023-05-08T07:44:42;9.87;;;9.17;;
19291;SDS011;9779;51.756;7.450;2023-05-08T07:47:07;10.53;;;9.93;;
19291;SDS011;9779;51.756;7.450;2023-05-08T07:49:33;10.03;;;9.33;;
19291;SDS011;9779;51.756;7.450;2023-05-08T07:51:59;12.13;;;9.80;;
19291;SDS011;9779;51.756;7.450;2023-05-08T07:54:24;10.50;;;9.77;;
19291;SDS011;9779;51.756;7.450;2023-05-08T07:56:50;10.70;;;10.03;;
19291;SDS011;9779;51.756;7.450;2023-05-08T07:59:16;11.07;;;10.07;;
19291;SDS011;9779;51.756;7.450;2023-05-08T08:01:42;10.83;;;9.93;;
19291;SDS011;9779;51.756;7.450;2023-05-08T08:04:11;10.13;;;9.37;;
19291;SDS011;9779;51.756;7.450;2023-05-08T08:06:37;11.00;;;9.90;;
19291;SDS011;9779;51.756;7.450;2023-05-08T08:09:03;10.80;;;9.50;;
19291;SDS011;9779;51.756;7.450;2023-05-08T08:11:28;10.00;;;9.20;;
19291;SDS011;9779;51.756;7.450;2023-05-08T08:13:54;9.17;;;8.57;;
19291;SDS011;9779;51.756;7.450;2023-05-08T08:16:20;10.20;;;9.43;;
19291;SDS011;9779;51.756;7.450;2023-05-08T08:18:45;10.03;;;9.27;;
19291;SDS011;9779;51.756;7.450;2023-05-08T08:21:11;9.03;;;8.43;;
19291;SDS011;9779;51.756;7.450;2023-05-08T08:23:36;9.03;;;8.53;;
19291;SDS011;9779;51.756;7.450;2023-05-08T08:26:02;8.60;;;7.80;;
19291;SDS011;9779;51.756;7.450;2023-05-08T08:28:27;9.47;;;8.77;;
19291;SDS011;9779;51.756;7.450;2023-05-08T08:30:53;8.57;;;7.93;;
19291;SDS011;9779;51.756;7.450;2023-05-08T08:33:18;9.13;;;8.47;;
19291;SDS011;9779;51.756;7.450;2023-05-08T08:35:44;10.37;;;9.57;;
19291;SDS011;9779;51.756;7.450;2023-05-08T08:38:10;6.93;;;5.80;;
19291;SDS011;9779;51.756;7.450;2023-05-08T08:40:41;6.60;;;5.93;;
19291;SDS011;9779;51.756;7.450;2023-05-08T08:43:08;5.40;;;4.73;;
19291;SDS011;9779;51.756;7.450;2023-05-08T08:45:34;5.00;;;4.70;;
19291;SDS011;9779;51.756;7.450;2023-05-08T08:48:01;6.17;;;5.13;;
19291;SDS011;9779;51.756;7.450;2023-05-08T08:50:31;7.43;;;6.43;;
19291;SDS011;9779;51.756;7.450;2023-05-08T08:52:59;7.93;;;6.33;;
19291;SDS011;9779;51.756;7.450;2023-05-08T08:55:43;7.70;;;7.00;;
19291;SDS011;9779;51.756;7.450;2023-05-08T08:58:16;8.33;;;7.73;;
19291;SDS011;9779;51.756;7.450;2023-05-08T09:00:49;8.33;;;7.83;;
19291;SDS011;9779;51.756;7.450;2023-05-08T09:03:14;7.97;;;7.40;;
19291;SDS011;9779;51.756;7.450;2023-05-08T09:05:40;8.07;;;7.33;;
19291;SDS011;9779;51.756;7.450;2023-05-08T09:08:08;7.80;;;7.40;;
19291;SDS011;9779;51.756;7.450;2023-05-08T09:10:34;7.97;;;7.17;;
19291;SDS011;9779;51.756;7.450;2023-05-08T09:13:00;8.37;;;7.87;;
19291;SDS011;9779;51.756;7.450;2023-05-08T09:15:27;8.37;;;7.87;;
19291;SDS011;9779;51.756;7.450;2023-05-08T09:17:53;7.37;;;6.80;;
19291;SDS011;9779;51.756;7.450;2023-05-08T09:20:18;7.67;;;7.20;;
19291;SDS011;9779;51.756;7.450;2023-05-08T09:22:44;7.67;;;7.27;;
19291;SDS011;9779;51.756;7.450;2023-05-08T09:25:10;7.13;;;6.53;;
19291;SDS011;9779;51.756;7.450;2023-05-08T09:27:36;7.43;;;7.03;;
19291;SDS011;9779;51.756;7.450;2023-05-08T09:32:32;9.10;;;6.80;;
19291;SDS011;9779;51.756;7.450;2023-05-08T09:34:59;6.67;;;6.27;;
19291;SDS011;9779;51.756;7.450;2023-05-08T09:37:25;6.33;;;5.93;;
19291;SDS011;9779;51.756;7.450;2023-05-08T09:39:52;5.60;;;5.30;;
19291;SDS011;9779;51.756;7.450;2023-05-08T09:42:17;6.10;;;5.60;;
19291;SDS011;9779;51.756;7.450;2023-05-08T09:47:10;9.17;;;5.80;;
19291;SDS011;9779;51.756;7.450;2023-05-08T09:50:02;5.73;;;4.87;;
19291;SDS011;9779;51.756;7.450;2023-05-08T09:52:30;6.00;;;5.47;;
19291;SDS011;9779;51.756;7.450;2023-05-08T09:57:26;5.23;;;4.97;;
19291;SDS011;9779;51.756;7.450;2023-05-08T09:59:59;5.30;;;5.00;;
19291;SDS011;9779;51.756;7.450;2023-05-08T10:02:30;6.33;;;5.83;;
19291;SDS011;9779;51.756;7.450;2023-05-08T10:04:56;7.30;;;5.50;;
19291;SDS011;9779;51.756;7.450;2023-05-08T10:07:31;5.97;;;5.57;;
19291;SDS011;9779;51.756;7.450;2023-05-08T10:10:04;5.87;;;5.43;;
19291;SDS011;9779;51.756;7.450;2023-05-08T10:12:31;6.00;;;5.40;;
19291;SDS011;9779;51.756;7.450;2023-05-08T10:14:57;5.57;;;5.20;;
19291;SDS011;9779;51.756;7.450;2023-05-08T10:17:28;4.80;;;4.50;;
19291;SDS011;9779;51.756;7.450;2023-05-08T10:20:00;6.03;;;5.73;;
19291;SDS011;9779;51.756;7.450;2023-05-08T10:22:31;5.90;;;5.50;;
19291;SDS011;9779;51.756;7.450;2023-05-08T10:25:02;5.20;;;4.80;;
19291;SDS011;9779;51.756;7.450;2023-05-08T10:27:47;5.23;;;5.00;;
19291;SDS011;9779;51.756;7.450;2023-05-08T10:30:36;6.20;;;5.70;;
19291;SDS011;9779;51.756;7.450;2023-05-08T10:33:07;6.90;;;6.30;;
19291;SDS011;9779;51.756;7.450;2023-05-08T10:35:35;5.60;;;5.30;;
19291;SDS011;9779;51.756;7.450;2023-05-08T10:38:02;6.13;;;5.83;;
19291;SDS011;9779;51.756;7.450;2023-05-08T10:40:28;6.77;;;6.37;;
19291;SDS011;9779;51.756;7.450;2023-05-08T10:42:53;6.20;;;5.90;;
19291;SDS011;9779;51.756;7.450;2023-05-08T10:45:21;6.47;;;6.07;;
19291;SDS011;9779;51.756;7.450;2023-05-08T10:47:58;6.70;;;6.30;;
19291;SDS011;9779;51.756;7.450;2023-05-08T10:50:46;7.13;;;6.67;;
19291;SDS011;9779;51.756;7.450;2023-05-08T10:56:27;8.17;;;7.60;;
19291;SDS011;9779;51.756;7.450;2023-05-08T10:58:56;8.60;;;7.80;;
19291;SDS011;9779;51.756;7.450;2023-05-08T11:01:23;10.43;;;7.40;;
19291;SDS011;9779;51.756;7.450;2023-05-08T11:03:52;8.20;;;7.80;;
19291;SDS011;9779;51.756;7.450;2023-05-08T11:09:07;8.53;;;7.93;;
19291;SDS011;9779;51.756;7.450;2023-05-08T11:11:35;7.67;;;7.13;;
19291;SDS011;9779;51.756;7.450;2023-05-08T11:19:22;6.77;;;6.37;;
19291;SDS011;9779;51.756;7.450;2023-05-08T11:24:46;6.47;;;6.00;;
19291;SDS011;9779;51.756;7.450;2023-05-08T11:27:11;5.73;;;5.20;;
19291;SDS011;9779;51.756;7.450;2023-05-08T11:29:37;5.33;;;4.97;;
19291;SDS011;9779;51.756;7.450;2023-05-08T11:32:04;5.50;;;5.17;;
19291;SDS011;9779;51.756;7.450;2023-05-08T11:37:17;4.90;;;4.50;;
19291;SDS011;9779;51.756;7.450;2023-05-08T11:39:44;5.50;;;5.20;;
19291;SDS011;9779;51.756;7.450;2023-05-08T11:42:52;4.50;;;4.30;;
19291;SDS011;9779;51.756;7.450;2023-05-08T11:47:31;5.53;;;5.13;;
19291;SDS011;9779;51.756;7.450;2023-05-08T11:50:02;4.77;;;4.47;;
19291;SDS011;9779;51.756;7.450;2023-05-08T11:52:30;4.30;;;4.00;;
19291;SDS011;9779;51.756;7.450;2023-05-08T11:54:59;4.07;;;3.67;;
19291;SDS011;9779;51.756;7.450;2023-05-08T11:57:27;2.83;;;2.63;;
19291;SDS011;9779;51.756;7.450;2023-05-08T11:59:55;4.80;;;2.50;;
19291;SDS011;9779;51.756;7.450;2023-05-08T12:02:33;4.47;;;2.77;;
19291;SDS011;9779;51.756;7.450;2023-05-08T12:04:59;2.20;;;2.10;;
19291;SDS011;9779;51.756;7.450;2023-05-08T12:07:25;2.10;;;1.80;;
19291;SDS011;9779;51.756;7.450;2023-05-08T12:09:51;1.80;;;1.70;;
19291;SDS011;9779;51.756;7.450;2023-05-08T12:12:17;2.20;;;1.50;;
19291;SDS011;9779;51.756;7.450;2023-05-08T12:14:42;3.67;;;2.40;;
19291;SDS011;9779;51.756;7.450;2023-05-08T12:17:08;3.97;;;3.67;;
19291;SDS011;9779;51.756;7.450;2023-05-08T12:19:34;3.43;;;3.23;;
19291;SDS011;9779;51.756;7.450;2023-05-08T12:21:59;5.07;;;4.60;;
19291;SDS011;9779;51.756;7.450;2023-05-08T12:24:25;4.15;;;3.85;;
19291;SDS011;9779;51.756;7.450;2023-05-08T12:26:54;3.73;;;3.43;;
19291;SDS011;9779;51.756;7.450;2023-05-08T12:29:20;5.50;;;5.00;;
19291;SDS011;9779;51.756;7.450;2023-05-08T12:31:46;4.30;;;4.00;;
19291;SDS011;9779;51.756;7.450;2023-05-08T12:34:12;5.07;;;4.67;;
19291;SDS011;9779;51.756;7.450;2023-05-08T12:36:37;5.80;;;5.15;;
19291;SDS011;9779;51.756;7.450;2023-05-08T12:39:13;7.53;;;5.35;;
19291;SDS011;9779;51.756;7.450;2023-05-08T12:41:49;6.03;;;5.53;;
19291;SDS011;9779;51.756;7.450;2023-05-08T12:44:22;6.18;;;5.78;;
19291;SDS011;9779;51.756;7.450;2023-05-08T12:46:49;7.70;;;7.07;;
19291;SDS011;9779;51.756;7.450;2023-05-08T12:49:25;7.77;;;7.20;;
19291;SDS011;9779;51.756;7.450;2023-05-08T12:52:01;8.10;;;7.50;;
19291;SDS011;9779;51.756;7.450;2023-05-08T12:54:46;7.30;;;6.80;;
19291;SDS011;9779;51.756;7.450;2023-05-08T12:57:14;6.80;;;6.40;;
19291;SDS011;9779;51.756;7.450;2023-05-08T12:59:41;6.55;;;6.05;;
19291;SDS011;9779;51.756;7.450;2023-05-08T13:02:12;5.90;;;5.43;;
19291;SDS011;9779;51.756;7.450;2023-05-08T13:04:37;8.90;;;5.67;;
19291;SDS011;9779;51.756;7.450;2023-05-08T13:07:03;6.57;;;6.17;;
19291;SDS011;9779;51.756;7.450;2023-05-08T13:09:29;7.00;;;6.23;;
19291;SDS011;9779;51.756;7.450;2023-05-08T13:11:54;6.70;;;6.30;;
19291;SDS011;9779;51.756;7.450;2023-05-08T13:14:20;6.50;;;6.20;;
19291;SDS011;9779;51.756;7.450;2023-05-08T13:16:46;6.78;;;5.88;;
19291;SDS011;9779;51.756;7.450;2023-05-08T13:19:12;5.37;;;5.07;;
19291;SDS011;9779;51.756;7.450;2023-05-08T13:21:42;5.03;;;4.73;;
19291;SDS011;9779;51.756;7.450;2023-05-08T13:24:14;6.33;;;5.83;;
19291;SDS011;9779;51.756;7.450;2023-05-08T13:26:40;5.63;;;5.23;;
19291;SDS011;9779;51.756;7.450;2023-05-08T13:29:07;9.23;;;5.73;;
19291;SDS011;9779;51.756;7.450;2023-05-08T13:31:32;5.78;;;5.38;;
19291;SDS011;9779;51.756;7.450;2023-05-08T13:33:58;6.13;;;5.60;;
19291;SDS011;9779;51.756;7.450;2023-05-08T13:36:24;5.93;;;5.43;;
19291;SDS011;9779;51.756;7.450;2023-05-08T13:38:50;5.77;;;5.37;;
19291;SDS011;9779;51.756;7.450;2023-05-08T13:41:18;8.47;;;5.80;;
19291;SDS011;9779;51.756;7.450;2023-05-08T13:43:44;5.50;;;5.00;;
19291;SDS011;9779;51.756;7.450;2023-05-08T13:46:10;5.73;;;5.23;;
19291;SDS011;9779;51.756;7.450;2023-05-08T13:48:36;6.47;;;6.03;;
19291;SDS011;9779;51.756;7.450;2023-05-08T13:51:01;6.88;;;6.28;;
19291;SDS011;9779;51.756;7.450;2023-05-08T13:53:27;5.07;;;4.75;;
19291;SDS011;9779;51.756;7.450;2023-05-08T13:55:52;5.53;;;5.13;;
19291;SDS011;9779;51.756;7.450;2023-05-08T13:58:18;6.07;;;4.22;;
19291;SDS011;9779;51.756;7.450;2023-05-08T14:00:43;5.55;;;5.18;;
19291;SDS011;9779;51.756;7.450;2023-05-08T14:03:09;5.20;;;4.70;;
19291;SDS011;9779;51.756;7.450;2023-05-08T14:05:34;4.43;;;4.13;;
19291;SDS011;9779;51.756;7.450;2023-05-08T14:08:00;4.97;;;4.45;;
19291;SDS011;9779;51.756;7.450;2023-05-08T14:10:26;3.95;;;3.65;;
19291;SDS011;9779;51.756;7.450;2023-05-08T14:12:51;4.47;;;4.10;;
19291;SDS011;9779;51.756;7.450;2023-05-08T14:15:17;3.97;;;3.78;;
19291;SDS011;9779;51.756;7.450;2023-05-08T14:17:42;4.50;;;3.40;;
19291;SDS011;9779;51.756;7.450;2023-05-08T14:20:08;3.53;;;3.23;;
19291;SDS011;9779;51.756;7.450;2023-05-08T14:22:34;4.90;;;4.20;;
19291;SDS011;9779;51.756;7.450;2023-05-08T14:24:59;6.47;;;6.07;;
19291;SDS011;9779;51.756;7.450;2023-05-08T14:27:25;6.63;;;6.13;;
19291;SDS011;9779;51.756;7.450;2023-05-08T14:29:50;6.05;;;5.75;;
19291;SDS011;9779;51.756;7.450;2023-05-08T14:32:17;7.40;;;6.70;;
19291;SDS011;9779;51.756;7.450;2023-05-08T14:34:43;6.53;;;5.70;;
19291;SDS011;9779;51.756;7.450;2023-05-08T14:37:08;7.07;;;6.43;;
19291;SDS011;9779;51.756;7.450;2023-05-08T14:39:35;8.82;;;5.93;;
19291;SDS011;9779;51.756;7.450;2023-05-08T14:42:00;6.70;;;6.20;;
19291;SDS011;9779;51.756;7.450;2023-05-08T14:44:26;6.65;;;6.15;;
19291;SDS011;9779;51.756;7.450;2023-05-08T14:46:52;8.40;;;6.60;;
19291;SDS011;9779;51.756;7.450;2023-05-08T14:49:18;7.68;;;7.18;;
19291;SDS011;9779;51.756;7.450;2023-05-08T14:51:43;9.83;;;9.17;;
19291;SDS011;9779;51.756;7.450;2023-05-08T14:54:09;10.40;;;9.65;;
19291;SDS011;9779;51.756;7.450;2023-05-08T14:56:34;9.48;;;8.88;;
19291;SDS011;9779;51.756;7.450;2023-05-08T14:59:00;10.67;;;9.43;;
19291;SDS011;9779;51.756;7.450;2023-05-08T15:01:25;10.85;;;10.02;;
19291;SDS011;9779;51.756;7.450;2023-05-08T15:03:51;12.32;;;9.82;;
19291;SDS011;9779;51.756;7.450;2023-05-08T15:06:20;9.30;;;8.80;;
19291;SDS011;9779;51.756;7.450;2023-05-08T15:08:46;8.30;;;7.70;;
19291;SDS011;9779;51.756;7.450;2023-05-08T15:11:13;7.72;;;7.22;;
19291;SDS011;9779;51.756;7.450;2023-05-08T15:13:38;8.35;;;7.85;;
19291;SDS011;9779;51.756;7.450;2023-05-08T15:16:04;7.63;;;7.13;;
19291;SDS011;9779;51.756;7.450;2023-05-08T15:18:30;9.95;;;7.07;;
19291;SDS011;9779;51.756;7.450;2023-05-08T15:20:55;6.78;;;6.38;;
19291;SDS011;9779;51.756;7.450;2023-05-08T15:23:23;6.80;;;6.20;;
19291;SDS011;9779;51.756;7.450;2023-05-08T15:25:49;6.45;;;5.97;;
19291;SDS011;9779;51.756;7.450;2023-05-08T15:28:15;6.05;;;5.55;;
19291;SDS011;9779;51.756;7.450;2023-05-08T15:30:40;6.18;;;5.68;;
19291;SDS011;9779;51.756;7.450;2023-05-08T15:33:09;5.57;;;5.05;;
19291;SDS011;9779;51.756;7.450;2023-05-08T15:35:34;6.00;;;4.43;;
19291;SDS011;9779;51.756;7.450;2023-05-08T15:38:00;4.55;;;4.25;;
19291;SDS011;9779;51.756;7.450;2023-05-08T15:40:29;4.50;;;4.20;;
19291;SDS011;9779;51.756;7.450;2023-05-08T15:42:55;3.83;;;3.63;;
19291;SDS011;9779;51.756;7.450;2023-05-08T15:45:21;3.95;;;3.75;;
19291;SDS011;9779;51.756;7.450;2023-05-08T15:47:46;4.10;;;3.80;;